Time,TemperatureF,DewpointF,PressureIn,WindDirection,WindDirectionDegrees,WindSpeedMPH,WindSpeedGustMPH,Humidity,HourlyPrecipIn,Conditions,Clouds,dailyrainin,SoftwareType,DateUTC
2013-03-22 00:02:00,6.0,2.0,-100.00,NNE,15,0.0,0.0,86,-99.99,,,-99.99,,2013-03-22 05:02:00,
2013-03-22 00:12:00,2.0,0.0,-100.00,NNE,15,0.0,0.0,89,-99.99,,,-99.99,,2013-03-22 05:12:00,
2013-03-22 00:32:00,2.0,0.0,-100.00,NNE,15,0.0,0.0,89,-99.99,,,-99.99,,2013-03-22 05:32:00,
2013-03-22 00:42:00,2.0,0.0,-100.00,NNE,15,0.0,0.0,89,-99.99,,,-99.99,,2013-03-22 05:42:00,
2013-03-22 00:52:00,2.0,0.0,-100.00,NNE,15,0.0,0.0,89,-99.99,,,-99.99,,2013-03-22 05:52:00,
2013-03-22 01:02:00,2.0,0.0,-100.00,NNE,15,0.0,0.0,89,-99.99,,,-99.99,,2013-03-22 06:02:00,
2013-03-22 01:12:00,1.0,-1.0,-100.00,NNE,15,0.0,0.0,90,-99.99,,,-99.99,,2013-03-22 06:12:00,
2013-03-22 01:32:00,1.0,-1.0,-100.00,NNE,15,0.0,0.0,90,-99.99,,,-99.99,,2013-03-22 06:32:00,
2013-03-22 01:43:00,1.0,-1.0,-100.00,NNE,15,0.0,0.0,90,-99.99,,,-99.99,,2013-03-22 06:43:00,
2013-03-22 01:52:00,1.0,-1.0,-100.00,NNE,15,0.0,0.0,90,-99.99,,,-99.99,,2013-03-22 06:52:00,
2013-03-22 02:02:00,1.0,-1.0,-100.00,NNE,15,0.0,0.0,90,-99.99,,,-99.99,,2013-03-22 07:02:00,
2013-03-22 02:12:00,-1.0,-3.0,-100.00,NNE,15,0.0,0.0,90,-99.99,,,-99.99,,2013-03-22 07:12:00,
2013-03-22 02:32:00,-1.0,-3.0,-100.00,NNE,15,0.0,0.0,90,-99.99,,,-99.99,,2013-03-22 07:32:00,
2013-03-22 02:42:00,-1.0,-3.0,-100.00,NNE,15,0.0,0.0,90,-99.99,,,-99.99,,2013-03-22 07:42:00,
2013-03-22 02:52:00,-1.0,-3.0,-100.00,NNE,15,0.0,0.0,90,-99.99,,,-99.99,,2013-03-22 07:52:00,
2013-03-22 03:03:00,-1.0,-3.0,-100.00,NNE,15,0.0,0.0,90,-99.99,,,-99.99,,2013-03-22 08:03:00,
2013-03-22 03:12:00,-2.0,-4.0,-100.00,NNE,15,0.0,0.0,90,-99.99,,,-99.99,,2013-03-22 08:12:00,
2013-03-22 03:32:00,-2.0,-4.0,-100.00,NNE,15,0.0,0.0,90,-99.99,,,-99.99,,2013-03-22 08:32:00,
2013-03-22 03:42:00,-2.0,-4.0,-100.00,NNE,15,0.0,0.0,90,-99.99,,,-99.99,,2013-03-22 08:42:00,
2013-03-22 03:52:00,-2.0,-4.0,-100.00,NNE,15,0.0,0.0,90,-99.99,,,-99.99,,2013-03-22 08:52:00,
2013-03-22 04:02:00,-2.0,-4.0,-100.00,NNE,15,0.0,0.0,90,-99.99,,,-99.99,,2013-03-22 09:02:00,
2013-03-22 04:12:00,-4.0,-6.0,-100.00,NNE,15,0.0,0.0,90,-99.99,,,-99.99,,2013-03-22 09:12:00,
2013-03-22 04:33:00,-4.0,-6.0,-100.00,NNE,15,0.0,0.0,90,-99.99,,,-99.99,,2013-03-22 09:33:00,
2013-03-22 04:42:00,-4.0,-6.0,-100.00,NNE,15,0.0,0.0,90,-99.99,,,-99.99,,2013-03-22 09:42:00,
2013-03-22 04:53:00,-4.0,-6.0,-100.00,NNE,15,0.0,0.0,90,-99.99,,,-99.99,,2013-03-22 09:53:00,
2013-03-22 05:03:00,-4.0,-6.0,-100.00,NNE,15,0.0,0.0,90,-99.99,,,-99.99,,2013-03-22 10:03:00,
2013-03-22 05:11:00,-5.0,-8.0,-100.00,NNE,15,0.0,0.0,90,-99.99,,,-99.99,,2013-03-22 10:11:00,
2013-03-22 05:33:00,-5.0,-8.0,-100.00,NNE,15,0.0,0.0,90,-99.99,,,-99.99,,2013-03-22 10:33:00,
2013-03-22 05:42:00,-5.0,-8.0,-100.00,NNE,15,0.0,0.0,90,-99.99,,,-99.99,,2013-03-22 10:42:00,
2013-03-22 05:52:00,-5.0,-8.0,-100.00,NNE,15,0.0,0.0,90,-99.99,,,-99.99,,2013-03-22 10:52:00,
2013-03-22 06:03:00,-5.0,-8.0,-100.00,NNE,15,0.0,0.0,90,-99.99,,,-99.99,,2013-03-22 11:03:00,
2013-03-22 06:12:00,-1.0,-3.0,-100.00,NNE,15,0.0,0.0,90,-99.99,,,-99.99,,2013-03-22 11:12:00,
2013-03-22 06:33:00,-1.0,-3.0,-100.00,NNE,15,0.0,0.0,90,-99.99,,,-99.99,,2013-03-22 11:33:00,
2013-03-22 06:42:00,-1.0,-3.0,-100.00,NNE,15,0.0,0.0,90,-99.99,,,-99.99,,2013-03-22 11:42:00,
2013-03-22 06:52:00,-1.0,-3.0,-100.00,NNE,15,0.0,0.0,90,-99.99,,,-99.99,,2013-03-22 11:52:00,
2013-03-22 07:02:00,-1.0,-3.0,-100.00,NNE,15,0.0,0.0,90,-99.99,,,-99.99,,2013-03-22 12:02:00,
2013-03-22 08:12:00,7.0,5.0,-100.00,NE,55,0.0,1.0,91,-99.99,,,-99.99,,2013-03-22 13:12:00,
2013-03-22 08:32:00,7.0,5.0,-100.00,NE,55,0.0,1.0,91,-99.99,,,-99.99,,2013-03-22 13:32:00,
2013-03-22 08:42:00,7.0,5.0,-100.00,NE,55,0.0,1.0,91,-99.99,,,-99.99,,2013-03-22 13:42:00,
2013-03-22 08:52:00,7.0,5.0,-100.00,NE,55,0.0,1.0,91,-99.99,,,-99.99,,2013-03-22 13:52:00,
2013-03-22 09:02:00,7.0,5.0,-100.00,NE,55,0.0,1.0,91,-99.99,,,-99.99,,2013-03-22 14:02:00,
2013-03-22 09:12:00,14.0,12.0,-100.00,NNW,345,3.0,3.0,91,-99.99,,,-99.99,,2013-03-22 14:12:00,
2013-03-22 09:32:00,14.0,12.0,-100.00,NNW,345,3.0,3.0,91,-99.99,,,-99.99,,2013-03-22 14:32:00,
2013-03-22 09:43:00,14.0,12.0,-100.00,NNW,345,3.0,3.0,91,-99.99,,,-99.99,,2013-03-22 14:43:00,
2013-03-22 09:52:00,14.0,12.0,-100.00,NNW,345,3.0,3.0,91,-99.99,,,-99.99,,2013-03-22 14:52:00,
2013-03-22 10:03:00,14.0,12.0,-100.00,NNW,345,3.0,3.0,91,-99.99,,,-99.99,,2013-03-22 15:03:00,
2013-03-22 11:32:00,26.0,20.0,-100.00,NNE,30,5.0,9.0,77,-99.99,,,-99.99,,2013-03-22 16:32:00,
2013-03-22 11:42:00,26.0,20.0,-100.00,NNE,30,5.0,9.0,77,-99.99,,,-99.99,,2013-03-22 16:42:00,
2013-03-22 11:52:00,26.0,20.0,-100.00,NNE,30,5.0,9.0,77,-99.99,,,-99.99,,2013-03-22 16:52:00,
2013-03-22 12:03:00,26.0,20.0,-100.00,NNE,30,5.0,9.0,77,-99.99,,,-99.99,,2013-03-22 17:03:00,
2013-03-22 12:12:00,26.0,20.0,-100.00,NNE,30,5.0,9.0,77,-99.99,,,-99.99,,2013-03-22 17:12:00,
2013-03-22 12:33:00,27.0,18.0,-100.00,NNE,25,6.0,9.0,71,-99.99,,,-99.99,,2013-03-22 17:33:00,
2013-03-22 12:42:00,27.0,18.0,-100.00,NNE,25,6.0,9.0,71,-99.99,,,-99.99,,2013-03-22 17:42:00,
2013-03-22 12:53:00,27.0,18.0,-100.00,NNE,25,6.0,9.0,71,-99.99,,,-99.99,,2013-03-22 17:53:00,
2013-03-22 13:02:00,27.0,18.0,-100.00,NNE,25,6.0,9.0,71,-99.99,,,-99.99,,2013-03-22 18:02:00,
2013-03-22 13:33:00,30.0,19.0,-100.00,East,90,3.0,12.0,65,-99.99,,,-99.99,,2013-03-22 18:33:00,
2013-03-22 13:42:00,30.0,19.0,-100.00,East,90,3.0,12.0,65,-99.99,,,-99.99,,2013-03-22 18:42:00,
2013-03-22 13:52:00,30.0,19.0,-100.00,East,90,3.0,12.0,65,-99.99,,,-99.99,,2013-03-22 18:52:00,
2013-03-22 14:02:00,30.0,19.0,-100.00,East,90,3.0,12.0,65,-99.99,,,-99.99,,2013-03-22 19:02:00,
2013-03-22 14:12:00,30.0,19.0,-100.00,East,90,3.0,12.0,65,-99.99,,,-99.99,,2013-03-22 19:12:00,
2013-03-22 14:33:00,30.0,19.0,-100.00,NE,55,3.0,10.0,62,-99.99,,,-99.99,,2013-03-22 19:33:00,
2013-03-22 14:43:00,30.0,19.0,-100.00,NE,55,3.0,10.0,62,-99.99,,,-99.99,,2013-03-22 19:43:00,
2013-03-22 14:52:00,30.0,19.0,-100.00,NE,55,3.0,10.0,62,-99.99,,,-99.99,,2013-03-22 19:52:00,
2013-03-22 15:02:00,30.0,19.0,-100.00,NE,55,3.0,10.0,62,-99.99,,,-99.99,,2013-03-22 20:02:00,
2013-03-22 15:12:00,30.0,19.0,-100.00,NE,55,3.0,10.0,62,-99.99,,,-99.99,,2013-03-22 20:12:00,
2013-03-22 15:32:00,31.0,18.0,-100.00,North,0,3.0,6.0,59,-99.99,,,-99.99,,2013-03-22 20:32:00,
2013-03-22 15:43:00,31.0,18.0,-100.00,North,0,3.0,6.0,59,-99.99,,,-99.99,,2013-03-22 20:43:00,
2013-03-22 15:52:00,31.0,18.0,-100.00,North,0,3.0,6.0,59,-99.99,,,-99.99,,2013-03-22 20:52:00,
2013-03-22 16:03:00,31.0,18.0,-100.00,North,0,3.0,6.0,59,-99.99,,,-99.99,,2013-03-22 21:03:00,
2013-03-22 16:12:00,31.0,18.0,-100.00,NNE,15,6.0,9.0,58,-99.99,,,-99.99,,2013-03-22 21:12:00,
2013-03-22 16:33:00,31.0,18.0,-100.00,NNE,15,6.0,9.0,58,-99.99,,,-99.99,,2013-03-22 21:33:00,
2013-03-22 16:43:00,31.0,18.0,-100.00,NNE,15,6.0,9.0,58,-99.99,,,-99.99,,2013-03-22 21:43:00,
2013-03-22 16:53:00,31.0,18.0,-100.00,NNE,15,6.0,9.0,58,-99.99,,,-99.99,,2013-03-22 21:53:00,
2013-03-22 17:03:00,31.0,18.0,-100.00,NNE,15,6.0,9.0,58,-99.99,,,-99.99,,2013-03-22 22:03:00,
2013-03-22 17:12:00,30.0,19.0,-100.00,North,350,6.0,9.0,63,-99.99,,,-99.99,,2013-03-22 22:12:00,
2013-03-22 17:32:00,30.0,19.0,-100.00,North,350,6.0,9.0,63,-99.99,,,-99.99,,2013-03-22 22:32:00,
2013-03-22 17:43:00,30.0,19.0,-100.00,North,350,6.0,9.0,63,-99.99,,,-99.99,,2013-03-22 22:43:00,
2013-03-22 17:53:00,30.0,19.0,-100.00,North,350,6.0,9.0,63,-99.99,,,-99.99,,2013-03-22 22:53:00,
2013-03-22 18:02:00,30.0,19.0,-100.00,North,350,6.0,9.0,63,-99.99,,,-99.99,,2013-03-22 23:02:00,
2013-03-22 18:12:00,30.0,19.0,-100.00,North,5,5.0,9.0,64,-99.99,,,-99.99,,2013-03-22 23:12:00,
2013-03-22 18:32:00,30.0,19.0,-100.00,North,5,5.0,9.0,64,-99.99,,,-99.99,,2013-03-22 23:32:00,
2013-03-22 18:42:00,30.0,19.0,-100.00,North,5,5.0,9.0,64,-99.99,,,-99.99,,2013-03-22 23:42:00,
2013-03-22 18:52:00,30.0,19.0,-100.00,North,5,5.0,9.0,64,-99.99,,,-99.99,,2013-03-22 23:52:00,
2013-03-22 19:02:00,30.0,19.0,-100.00,North,5,5.0,9.0,64,-99.99,,,-99.99,,2013-03-23 00:02:00,
2013-03-22 19:33:00,29.0,19.0,-100.00,North,350,2.0,6.0,66,-99.99,,,-99.99,,2013-03-23 00:33:00,
2013-03-22 19:42:00,29.0,19.0,-100.00,North,350,2.0,6.0,66,-99.99,,,-99.99,,2013-03-23 00:42:00,
2013-03-22 19:52:00,29.0,19.0,-100.00,North,350,2.0,6.0,66,-99.99,,,-99.99,,2013-03-23 00:52:00,
2013-03-22 20:03:00,29.0,19.0,-100.00,North,350,2.0,6.0,66,-99.99,,,-99.99,,2013-03-23 01:03:00,
2013-03-22 20:12:00,29.0,19.0,-100.00,North,350,2.0,6.0,66,-99.99,,,-99.99,,2013-03-23 01:12:00,
2013-03-22 20:32:00,29.0,18.0,-100.00,North,5,1.0,4.0,66,-99.99,,,-99.99,,2013-03-23 01:32:00,
2013-03-22 20:43:00,29.0,18.0,-100.00,North,5,1.0,4.0,66,-99.99,,,-99.99,,2013-03-23 01:43:00,
2013-03-22 20:52:00,29.0,18.0,-100.00,North,5,1.0,4.0,66,-99.99,,,-99.99,,2013-03-23 01:52:00,
2013-03-22 21:02:00,29.0,18.0,-100.00,North,5,1.0,4.0,66,-99.99,,,-99.99,,2013-03-23 02:02:00,
2013-03-22 21:12:00,29.0,18.0,-100.00,North,5,1.0,4.0,66,-99.99,,,-99.99,,2013-03-23 02:12:00,
2013-03-22 21:32:00,28.0,19.0,-100.00,NNE,15,2.0,7.0,69,-99.99,,,-99.99,,2013-03-23 02:32:00,
2013-03-22 21:42:00,28.0,19.0,-100.00,NNE,15,2.0,7.0,69,-99.99,,,-99.99,,2013-03-23 02:42:00,
2013-03-22 21:52:00,28.0,19.0,-100.00,NNE,15,2.0,7.0,69,-99.99,,,-99.99,,2013-03-23 02:52:00,
2013-03-22 22:02:00,28.0,19.0,-100.00,NNE,15,2.0,7.0,69,-99.99,,,-99.99,,2013-03-23 03:02:00,
2013-03-22 22:12:00,28.0,19.0,-100.00,NNE,15,2.0,7.0,69,-99.99,,,-99.99,,2013-03-23 03:12:00,
2013-03-22 22:33:00,27.0,19.0,-100.00,NE,55,4.0,9.0,73,-99.99,,,-99.99,,2013-03-23 03:33:00,
2013-03-22 22:43:00,27.0,19.0,-100.00,NE,55,4.0,9.0,73,-99.99,,,-99.99,,2013-03-23 03:43:00,
2013-03-22 22:53:00,27.0,19.0,-100.00,NE,55,4.0,9.0,73,-99.99,,,-99.99,,2013-03-23 03:53:00,
2013-03-22 23:02:00,27.0,19.0,-100.00,NE,55,4.0,9.0,73,-99.99,,,-99.99,,2013-03-23 04:02:00,